createdAt,value
2023-05-22T00:00:55.505Z,39.59
2023-05-22T00:01:55.548Z,39.78
2023-05-22T00:02:55.569Z,46.16
2023-05-22T00:03:55.491Z,45.81
2023-05-22T00:04:55.509Z,46.86
2023-05-22T00:05:55.466Z,42.51
2023-05-22T00:06:55.449Z,42.87
2023-05-22T00:07:55.493Z,41.39
2023-05-22T00:08:55.441Z,44.62
2023-05-22T00:09:55.439Z,46.66
2023-05-22T00:10:55.426Z,46.28
2023-05-22T00:11:55.440Z,46.41
2023-05-22T00:12:55.436Z,40.73
2023-05-22T00:13:55.405Z,42.15
2023-05-22T00:14:55.389Z,41.47
2023-05-22T00:15:55.390Z,47.42
2023-05-22T00:16:55.455Z,51.08
2023-05-22T00:17:55.384Z,42.96
2023-05-22T00:18:55.400Z,42.52
2023-05-22T00:19:55.363Z,44.75
2023-05-22T00:20:55.382Z,61.37
2023-05-22T00:21:55.401Z,43.60
2023-05-22T00:22:55.387Z,40.26
2023-05-22T00:23:55.325Z,40.37
2023-05-22T00:24:55.334Z,46.72
2023-05-22T00:25:55.368Z,49.44
2023-05-22T00:26:55.371Z,54.07
2023-05-22T00:27:55.288Z,46.41
2023-05-22T00:28:55.283Z,51.12
2023-05-22T00:29:55.280Z,42.82
2023-05-22T00:30:55.291Z,40.23
2023-05-22T00:31:55.283Z,50.13
2023-05-22T00:32:56.276Z,41.20
2023-05-22T00:33:55.290Z,40.58
2023-05-22T00:34:55.264Z,45.07
2023-05-22T00:35:55.248Z,50.81
2023-05-22T00:36:55.252Z,42.97
2023-05-22T00:37:55.228Z,45.18
2023-05-22T00:38:55.219Z,46.39
2023-05-22T00:39:55.210Z,44.65
2023-05-22T00:40:55.195Z,42.68
2023-05-22T00:41:55.216Z,42.75
2023-05-22T00:42:55.217Z,46.34
2023-05-22T00:43:55.207Z,45.13
2023-05-22T00:44:55.165Z,48.50
2023-05-22T00:45:55.176Z,46.58
2023-05-22T00:46:55.240Z,41.76
2023-05-22T00:47:55.178Z,45.02
2023-05-22T00:48:55.143Z,58.35
2023-05-22T00:49:55.167Z,46.91
2023-05-22T00:50:55.167Z,44.47
2023-05-22T00:51:55.150Z,49.62
2023-05-22T00:52:55.120Z,43.97
2023-05-22T00:53:55.112Z,48.62
2023-05-22T00:54:55.107Z,56.56
2023-05-22T00:55:55.108Z,50.17
2023-05-22T00:56:55.107Z,46.23
2023-05-22T00:57:55.075Z,42.57
2023-05-22T00:58:55.076Z,39.50
2023-05-22T00:59:55.066Z,48.15
2023-05-22T01:00:55.077Z,46.84
2023-05-22T01:01:55.068Z,48.71
2023-05-22T01:02:55.140Z,40.18
2023-05-22T01:03:55.141Z,39.94
2023-05-22T01:04:55.025Z,40.22
2023-05-22T01:05:55.096Z,52.46
2023-05-22T01:06:55.006Z,46.01
2023-05-22T01:07:55.006Z,45.53
2023-05-22T01:08:54.991Z,45.01
2023-05-22T01:09:54.986Z,48.92
2023-05-22T01:10:55.021Z,43.57
2023-05-22T01:11:54.972Z,43.12
2023-05-22T01:12:54.969Z,49.33
2023-05-22T01:13:54.960Z,47.23
2023-05-22T01:14:54.968Z,47.82
2023-05-22T01:15:54.992Z,42.36
2023-05-22T01:16:54.936Z,41.11
2023-05-22T01:17:55.046Z,56.84
2023-05-22T01:18:54.959Z,49.55
2023-05-22T01:19:54.954Z,47.49
2023-05-22T01:20:54.900Z,43.33
2023-05-22T01:21:54.900Z,42.12
2023-05-22T01:22:54.895Z,47.27
2023-05-22T01:23:54.880Z,41.49
2023-05-22T01:24:54.899Z,42.78
2023-05-22T01:25:54.866Z,44.12
2023-05-22T01:26:54.864Z,43.91
2023-05-22T01:27:54.851Z,53.71
2023-05-22T01:28:54.842Z,47.91
2023-05-22T01:29:54.857Z,41.08
2023-05-22T01:30:54.830Z,40.70
2023-05-22T01:31:54.823Z,40.96
2023-05-22T01:32:54.872Z,46.74
2023-05-22T01:33:55.143Z,44.48
2023-05-22T01:34:54.852Z,40.82
2023-05-22T01:35:54.794Z,47.62
2023-05-22T01:36:54.782Z,53.57
2023-05-22T01:37:54.787Z,41.11
2023-05-22T01:38:54.809Z,41.25
2023-05-22T01:39:54.755Z,39.69
2023-05-22T01:40:54.755Z,41.67
2023-05-22T01:41:54.744Z,46.45
2023-05-22T01:42:54.747Z,47.36
2023-05-22T01:43:54.748Z,50.11
2023-05-22T01:44:54.714Z,48.22
2023-05-22T01:45:54.761Z,54.11
2023-05-22T01:46:54.704Z,45.29
2023-05-22T01:47:54.758Z,44.98
2023-05-22T01:48:54.730Z,47.24
2023-05-22T01:49:54.696Z,58.18
2023-05-22T01:50:54.682Z,50.52
2023-05-22T01:51:54.674Z,48.21
2023-05-22T01:52:54.679Z,46.92
2023-05-22T01:53:54.668Z,43.99
2023-05-22T01:54:54.638Z,46.62
2023-05-22T01:55:54.628Z,48.57
2023-05-22T01:56:54.621Z,52.01
2023-05-22T01:57:54.641Z,46.20
2023-05-22T01:58:54.615Z,47.13
2023-05-22T01:59:54.662Z,46.46
2023-05-22T02:00:54.657Z,50.31
2023-05-22T02:01:54.587Z,48.49
2023-05-22T02:02:54.692Z,49.08
2023-05-22T02:03:54.573Z,45.05
2023-05-22T02:04:54.566Z,43.38
2023-05-22T02:05:54.557Z,51.13
2023-05-22T02:06:54.556Z,47.24
2023-05-22T02:07:54.570Z,47.99
2023-05-22T02:08:54.532Z,49.99
2023-05-22T02:09:54.523Z,50.14
2023-05-22T02:10:54.540Z,47.21
2023-05-22T02:11:54.535Z,53.31
2023-05-22T02:12:54.500Z,52.31
2023-05-22T02:13:54.501Z,46.13
2023-05-22T02:14:54.489Z,45.37
2023-05-22T02:15:54.543Z,57.25
2023-05-22T02:16:54.478Z,46.61
2023-05-22T02:17:54.504Z,50.17
2023-05-22T02:18:54.477Z,57.00
2023-05-22T02:19:54.468Z,52.15
2023-05-22T02:20:54.478Z,44.45
2023-05-22T02:21:54.451Z,49.42
2023-05-22T02:22:54.439Z,55.82
2023-05-22T02:23:54.426Z,48.70
2023-05-22T02:24:54.408Z,46.65
2023-05-22T02:25:54.437Z,49.12
2023-05-22T02:26:54.401Z,59.19
2023-05-22T02:27:54.389Z,49.67
2023-05-22T02:28:54.379Z,49.79
2023-05-22T02:29:54.407Z,53.22
2023-05-22T02:30:54.410Z,52.46
2023-05-22T02:31:54.357Z,50.89
2023-05-22T02:32:54.481Z,50.73
2023-05-22T02:33:54.339Z,58.15
2023-05-22T02:34:54.936Z,49.64
2023-05-22T02:35:55.334Z,51.63
2023-05-22T02:36:54.316Z,51.78
2023-05-22T02:37:54.316Z,55.05
2023-05-22T02:38:54.301Z,54.45
2023-05-22T02:39:54.350Z,56.56
2023-05-22T02:40:54.300Z,52.20
2023-05-22T02:41:54.286Z,54.49
2023-05-22T02:42:54.267Z,52.58
2023-05-22T02:43:54.265Z,53.08
2023-05-22T02:44:54.279Z,52.83
2023-05-22T02:45:54.250Z,50.91
2023-05-22T02:46:54.336Z,50.85
2023-05-22T02:47:54.255Z,49.91
2023-05-22T02:48:54.249Z,53.64
2023-05-22T02:49:54.242Z,52.65
2023-05-22T02:50:54.208Z,53.39
2023-05-22T02:51:54.204Z,51.67
2023-05-22T02:52:54.207Z,53.95
2023-05-22T02:53:54.206Z,52.09
2023-05-22T02:54:54.186Z,49.13
2023-05-22T02:55:54.166Z,52.62
2023-05-22T02:56:54.167Z,51.30
2023-05-22T02:57:54.154Z,51.76
2023-05-22T02:58:54.168Z,58.02
2023-05-22T02:59:54.149Z,55.65
2023-05-22T03:00:54.132Z,53.05
2023-05-22T03:01:54.152Z,55.22
2023-05-22T03:02:54.181Z,55.58
2023-05-22T03:03:54.209Z,55.36
2023-05-22T03:04:54.105Z,54.43
2023-05-22T03:05:54.083Z,57.34
2023-05-22T03:06:54.079Z,55.80
2023-05-22T03:07:54.111Z,58.19
2023-05-22T03:08:54.093Z,55.01
2023-05-22T03:09:54.057Z,55.21
2023-05-22T03:10:54.054Z,52.94
2023-05-22T03:11:54.060Z,53.57
2023-05-22T03:12:54.063Z,54.44
2023-05-22T03:13:54.025Z,55.99
2023-05-22T03:14:54.016Z,51.30
2023-05-22T03:15:54.015Z,56.30
2023-05-22T03:16:54.015Z,54.46
2023-05-22T03:17:54.050Z,52.18
2023-05-22T03:18:54.005Z,54.86
2023-05-22T03:19:53.985Z,57.54
2023-05-22T03:20:53.986Z,54.35
2023-05-22T03:21:53.969Z,59.43
2023-05-22T03:22:53.983Z,55.12
2023-05-22T03:23:53.951Z,53.25
2023-05-22T03:24:53.956Z,52.86
2023-05-22T03:25:53.933Z,52.85
2023-05-22T03:26:53.971Z,54.56
2023-05-22T03:27:53.953Z,55.02
2023-05-22T03:28:53.975Z,56.87
2023-05-22T03:29:53.909Z,56.12
2023-05-22T03:30:53.903Z,54.00
2023-05-22T03:31:53.915Z,56.04
2023-05-22T03:32:53.944Z,56.48
2023-05-22T03:33:54.390Z,55.29
2023-05-22T03:34:53.877Z,54.37
2023-05-22T03:35:53.875Z,54.50
2023-05-22T03:36:53.887Z,55.24
2023-05-22T03:37:53.875Z,59.52
2023-05-22T03:38:53.846Z,54.97
2023-05-22T03:39:53.829Z,55.84
2023-05-22T03:40:53.852Z,54.85
2023-05-22T03:41:53.860Z,53.28
2023-05-22T03:42:53.813Z,55.15
2023-05-22T03:43:53.801Z,57.51
2023-05-22T03:44:53.798Z,56.73
2023-05-22T03:45:53.849Z,56.01
2023-05-22T03:46:53.778Z,55.00
2023-05-22T03:47:53.846Z,57.00
2023-05-22T03:48:53.778Z,56.07
2023-05-22T03:49:53.752Z,56.66
2023-05-22T03:50:53.771Z,57.06
2023-05-22T03:51:53.738Z,55.69
2023-05-22T03:52:53.741Z,55.46
2023-05-22T03:53:53.732Z,60.84
2023-05-22T03:54:53.779Z,55.01
2023-05-22T03:55:53.728Z,57.38
2023-05-22T03:56:53.699Z,54.74
2023-05-22T03:57:53.684Z,61.91
2023-05-22T03:58:53.682Z,55.97
2023-05-22T03:59:53.704Z,50.53
2023-05-22T04:00:53.694Z,52.08
2023-05-22T04:01:54.657Z,53.79
2023-05-22T04:02:53.731Z,52.30
2023-05-22T04:03:53.644Z,59.60
2023-05-22T04:04:53.710Z,56.60
2023-05-22T04:05:53.641Z,56.03
2023-05-22T04:06:53.620Z,51.53
2023-05-22T04:07:53.624Z,56.13
2023-05-22T04:08:53.606Z,55.91
2023-05-22T04:09:53.628Z,57.04
2023-05-22T04:10:53.595Z,54.70
2023-05-22T04:11:53.585Z,52.87
2023-05-22T04:12:53.574Z,53.80
2023-05-22T04:13:53.610Z,55.75
2023-05-22T04:14:53.610Z,53.60
2023-05-22T04:15:53.608Z,55.77
2023-05-22T04:16:53.550Z,55.15
2023-05-22T04:17:53.607Z,54.52
2023-05-22T04:18:53.592Z,52.81
2023-05-22T04:19:53.530Z,56.66
2023-05-22T04:20:53.521Z,56.12
2023-05-22T04:21:53.512Z,55.71
2023-05-22T04:22:53.505Z,54.60
2023-05-22T04:23:53.520Z,53.89
2023-05-22T04:24:53.488Z,58.76
2023-05-22T04:25:53.487Z,59.97
2023-05-22T04:26:53.485Z,54.53
2023-05-22T04:27:53.485Z,57.02
2023-05-22T04:28:53.492Z,55.27
2023-05-22T04:29:53.454Z,55.34
2023-05-22T04:30:53.495Z,54.96
2023-05-22T04:31:53.435Z,55.25
2023-05-22T04:32:53.497Z,55.45
2023-05-22T04:33:53.452Z,57.62
2023-05-22T04:34:53.413Z,57.43
2023-05-22T04:35:53.415Z,56.70
2023-05-22T04:36:53.408Z,56.00
2023-05-22T04:37:53.419Z,57.78
2023-05-22T04:38:53.384Z,58.07
2023-05-22T04:39:53.378Z,54.74
2023-05-22T04:40:53.372Z,56.49
2023-05-22T04:41:53.362Z,56.74
2023-05-22T04:42:53.387Z,55.63
2023-05-22T04:43:53.359Z,56.89
2023-05-22T04:44:53.337Z,55.64
2023-05-22T04:45:53.343Z,52.40
2023-05-22T04:46:53.430Z,56.50
2023-05-22T04:47:53.397Z,58.04
2023-05-22T04:48:53.314Z,56.96
2023-05-22T04:49:53.314Z,58.85
2023-05-22T04:50:53.296Z,55.93
2023-05-22T04:51:53.310Z,55.69
2023-05-22T04:52:54.278Z,55.88
2023-05-22T04:53:53.278Z,56.80
2023-05-22T04:54:53.269Z,57.12
2023-05-22T04:55:53.262Z,56.96
2023-05-22T04:56:53.285Z,55.60
2023-05-22T04:57:53.245Z,56.61
2023-05-22T04:58:53.242Z,57.08
2023-05-22T04:59:53.224Z,57.56
2023-05-22T05:00:53.245Z,54.11
2023-05-22T05:01:53.229Z,53.31
2023-05-22T05:02:53.216Z,59.27
2023-05-22T05:03:53.254Z,58.77
2023-05-22T05:04:53.242Z,55.51
2023-05-22T05:05:53.455Z,57.32
2023-05-22T05:06:53.193Z,55.96
2023-05-22T05:07:53.164Z,56.49
2023-05-22T05:08:53.165Z,54.32
2023-05-22T05:09:53.152Z,55.39
2023-05-22T05:10:53.186Z,57.88
2023-05-22T05:11:53.138Z,55.93
2023-05-22T05:12:53.128Z,57.31
2023-05-22T05:13:53.123Z,56.26
2023-05-22T05:14:53.125Z,56.93
2023-05-22T05:15:53.134Z,55.10
2023-05-22T05:16:53.239Z,55.52
2023-05-22T05:17:53.194Z,56.74
2023-05-22T05:18:53.095Z,54.96
2023-05-22T05:19:53.107Z,54.89
2023-05-22T05:20:53.093Z,52.90
2023-05-22T05:21:53.057Z,55.26
2023-05-22T05:22:53.050Z,53.50
2023-05-22T05:23:53.041Z,52.83
2023-05-22T05:24:53.054Z,54.55
2023-05-22T05:25:53.023Z,51.73
2023-05-22T05:26:53.015Z,52.93
2023-05-22T05:27:53.016Z,54.32
2023-05-22T05:28:53.012Z,51.45
2023-05-22T05:29:53.020Z,54.33
2023-05-22T05:30:52.990Z,53.32
2023-05-22T05:31:53.042Z,53.74
2023-05-22T05:32:53.016Z,55.34
2023-05-22T05:33:52.989Z,53.86
2023-05-22T05:34:52.981Z,57.47
2023-05-22T05:35:52.956Z,52.64
2023-05-22T05:36:52.954Z,56.79
2023-05-22T05:37:52.936Z,57.35
2023-05-22T05:38:52.953Z,54.55
2023-05-22T05:39:52.924Z,55.43
2023-05-22T05:40:52.926Z,53.76
2023-05-22T05:41:52.907Z,55.08
2023-05-22T05:42:52.891Z,58.88
2023-05-22T05:43:52.920Z,53.35
2023-05-22T05:44:52.882Z,54.19
2023-05-22T05:45:52.893Z,52.14
2023-05-22T05:46:52.864Z,54.06
2023-05-22T05:47:52.914Z,53.63
2023-05-22T05:48:52.874Z,51.35
2023-05-22T05:49:52.850Z,54.24
2023-05-22T05:50:52.835Z,56.06
2023-05-22T05:51:52.822Z,54.97
2023-05-22T05:52:52.866Z,52.43
2023-05-22T05:53:52.831Z,49.98
2023-05-22T05:54:52.802Z,51.08
2023-05-22T05:55:52.792Z,51.79
2023-05-22T05:56:52.787Z,53.54
2023-05-22T05:57:52.806Z,52.17
2023-05-22T05:58:52.835Z,53.60
2023-05-22T05:59:52.769Z,51.46
2023-05-22T06:00:52.761Z,52.26
2023-05-22T06:01:52.778Z,52.08
2023-05-22T06:02:52.842Z,54.38
2023-05-22T06:03:52.908Z,55.68
2023-05-22T06:04:52.730Z,52.30
2023-05-22T06:05:52.767Z,62.19
2023-05-22T06:06:52.756Z,60.82
2023-05-22T06:07:52.730Z,57.37
2023-05-22T06:08:52.689Z,56.75
2023-05-22T06:09:52.702Z,54.52
2023-05-22T06:10:52.687Z,55.98
2023-05-22T06:11:52.699Z,54.67
2023-05-22T06:12:52.670Z,53.88
2023-05-22T06:13:52.652Z,54.54
2023-05-22T06:14:52.649Z,54.88
2023-05-22T06:15:52.699Z,53.43
2023-05-22T06:16:52.729Z,55.68
2023-05-22T06:17:52.732Z,54.16
2023-05-22T06:18:52.717Z,55.70
2023-05-22T06:19:52.650Z,58.73
2023-05-22T06:20:52.637Z,55.68
2023-05-22T06:21:52.613Z,55.41
2023-05-22T06:22:52.590Z,58.14
2023-05-22T06:23:52.585Z,57.17
2023-05-22T06:24:52.568Z,56.43
2023-05-22T06:25:52.596Z,54.22
2023-05-22T06:26:52.554Z,56.27
2023-05-22T06:27:52.547Z,54.30
2023-05-22T06:28:52.545Z,53.58
2023-05-22T06:29:52.565Z,54.68
2023-05-22T06:30:52.548Z,62.62
2023-05-22T06:31:52.640Z,56.90
2023-05-22T06:32:52.594Z,56.71
2023-05-22T06:33:52.569Z,57.64
2023-05-22T06:34:52.511Z,57.11
2023-05-22T06:35:52.483Z,56.01
2023-05-22T06:36:52.485Z,57.81
2023-05-22T06:37:52.468Z,58.07
2023-05-22T06:38:52.466Z,57.44
2023-05-22T06:39:52.482Z,54.17
2023-05-22T06:40:52.445Z,56.89
2023-05-22T06:41:52.438Z,55.84
2023-05-22T06:42:52.429Z,57.63
2023-05-22T06:43:52.438Z,60.78
2023-05-22T06:44:52.445Z,55.37
2023-05-22T06:45:52.439Z,56.80
2023-05-22T06:46:52.398Z,58.69
2023-05-22T06:47:52.424Z,57.31
2023-05-22T06:48:52.413Z,59.12
2023-05-22T06:49:52.413Z,62.39
2023-05-22T06:50:52.364Z,60.09
2023-05-22T06:51:52.365Z,56.87
2023-05-22T06:52:52.351Z,55.58
2023-05-22T06:53:52.365Z,53.09
2023-05-22T06:54:53.339Z,55.84
2023-05-22T06:55:52.324Z,55.64
2023-05-22T08:25:42.097Z,56.48
2023-05-22T08:26:42.094Z,56.71
2023-05-22T08:27:43.201Z,52.17
2023-05-22T08:28:43.201Z,53.72
2023-05-22T08:29:43.155Z,57.08
2023-05-22T08:30:43.145Z,54.48
2023-05-22T08:31:43.224Z,55.20
2023-05-22T08:32:43.161Z,56.00
2023-05-22T08:33:43.145Z,53.57
2023-05-22T08:34:43.117Z,54.95
2023-05-22T08:35:43.106Z,53.18
2023-05-22T08:36:43.134Z,54.94
2023-05-22T08:38:15.048Z,55.44
2023-05-22T08:38:43.108Z,57.95
2023-05-22T08:39:43.101Z,55.20
2023-05-22T08:40:46.248Z,54.15
2023-05-22T08:41:44.182Z,54.51
2023-05-22T08:42:43.159Z,53.47
2023-05-22T08:43:43.163Z,54.40
2023-05-22T08:44:43.134Z,53.13
2023-05-22T08:45:43.144Z,54.63
2023-05-22T08:46:43.193Z,54.19
2023-05-22T08:47:43.128Z,58.02
2023-05-22T08:48:43.088Z,58.00
2023-05-22T08:49:43.080Z,55.28
2023-05-22T08:50:43.078Z,56.36
2023-05-22T08:51:43.100Z,56.45
2023-05-22T08:52:43.042Z,55.44
2023-05-22T08:53:42.980Z,57.08
2023-05-22T08:54:42.966Z,55.11
2023-05-22T08:55:42.989Z,56.12
2023-05-22T08:56:55.683Z,55.99
2023-05-22T08:57:44.964Z,53.91
2023-05-22T08:58:42.942Z,57.04
2023-05-22T08:59:42.931Z,57.53
2023-05-22T09:00:43.271Z,57.98
2023-05-22T09:01:43.012Z,54.63
2023-05-22T09:02:42.925Z,55.08
2023-05-22T09:03:42.948Z,53.53
2023-05-22T09:04:42.889Z,52.63
2023-05-22T09:05:42.924Z,57.00
2023-05-22T09:06:42.899Z,55.84
2023-05-22T09:07:42.870Z,54.80
2023-05-22T09:08:42.893Z,58.31
2023-05-22T09:09:42.856Z,53.53
2023-05-22T09:10:42.907Z,55.99
2023-05-22T09:11:42.852Z,54.02
2023-05-22T09:12:42.853Z,56.56
2023-05-22T09:13:42.829Z,55.72
2023-05-22T09:14:42.864Z,59.16
2023-05-22T09:15:42.846Z,56.33
2023-05-22T09:16:42.900Z,58.12
2023-05-22T09:17:42.819Z,63.21
2023-05-22T09:18:42.853Z,54.91
2023-05-22T09:19:42.868Z,65.78
2023-05-22T09:20:43.428Z,53.33
2023-05-22T09:21:43.128Z,55.17
2023-05-22T09:22:42.756Z,54.92
2023-05-22T09:23:42.749Z,56.43
2023-05-22T09:24:42.779Z,57.45
2023-05-22T09:25:42.762Z,55.66
2023-05-22T09:26:42.734Z,54.03
2023-05-22T09:27:42.725Z,56.24
2023-05-22T09:28:42.743Z,52.89
2023-05-22T09:29:42.727Z,55.30
2023-05-22T09:30:42.880Z,52.75
2023-05-22T09:31:42.834Z,57.05
2023-05-22T09:32:42.731Z,52.98
2023-05-22T09:33:42.702Z,56.67
2023-05-22T09:34:42.686Z,57.04
2023-05-22T09:35:42.662Z,53.46
2023-05-22T09:36:42.722Z,57.79
2023-05-22T09:37:42.646Z,52.05
2023-05-22T09:38:42.659Z,56.91
2023-05-22T09:39:42.668Z,55.66
2023-05-22T09:40:42.626Z,64.03
2023-05-22T09:41:42.619Z,61.17
2023-05-22T09:42:42.617Z,56.17
2023-05-22T09:43:42.635Z,55.08
2023-05-22T09:44:42.903Z,53.60
2023-05-22T09:45:42.589Z,56.98
2023-05-22T09:46:42.643Z,56.38
2023-05-22T09:47:42.653Z,60.55
2023-05-22T09:48:42.591Z,52.54
2023-05-22T09:49:42.557Z,53.46
2023-05-22T09:50:42.548Z,64.69
2023-05-22T09:51:42.545Z,54.63
2023-05-22T09:52:42.562Z,57.04
2023-05-22T09:53:42.536Z,59.19
2023-05-22T09:54:42.520Z,55.91
2023-05-22T09:55:42.542Z,56.34
2023-05-22T09:56:42.507Z,58.44
2023-05-22T09:57:42.534Z,61.39
2023-05-22T09:58:42.489Z,51.89
2023-05-22T09:59:42.490Z,54.39
2023-05-22T10:00:42.603Z,53.82
2023-05-22T10:01:42.566Z,57.89
2023-05-22T10:02:42.529Z,55.34
2023-05-22T10:03:42.464Z,55.99
2023-05-22T10:04:42.546Z,53.86
2023-05-22T10:05:42.439Z,53.51
2023-05-22T10:06:42.549Z,60.76
2023-05-22T10:07:42.451Z,55.03
2023-05-22T10:08:42.437Z,55.42
2023-05-22T10:09:42.405Z,54.61
2023-05-22T10:10:42.574Z,54.82
2023-05-22T10:11:42.424Z,53.00
2023-05-22T10:12:42.388Z,52.42
2023-05-22T10:13:42.397Z,54.30
2023-05-22T10:14:42.376Z,50.44
2023-05-22T10:15:42.484Z,55.14
2023-05-22T10:16:42.519Z,56.49
2023-05-22T10:17:42.391Z,55.62
2023-05-22T10:18:42.346Z,54.22
2023-05-22T10:19:44.548Z,55.04
2023-05-22T10:20:43.329Z,55.64
2023-05-22T10:21:42.394Z,53.72
2023-05-22T10:22:42.337Z,54.98
2023-05-22T10:23:42.307Z,57.33
2023-05-22T10:24:42.293Z,52.28
2023-05-22T10:25:42.321Z,57.96
2023-05-22T10:26:42.301Z,56.41
2023-05-22T10:27:42.276Z,54.95
2023-05-22T10:28:42.269Z,55.64
2023-05-22T10:29:42.324Z,53.82
2023-05-22T10:30:42.621Z,54.81
2023-05-22T10:31:42.242Z,51.00
2023-05-22T10:32:42.507Z,50.54
2023-05-22T10:33:42.248Z,52.46
2023-05-22T10:34:42.277Z,52.58
2023-05-22T10:35:42.232Z,54.93
2023-05-22T10:36:42.204Z,58.01
2023-05-22T10:37:42.202Z,63.77
2023-05-22T10:38:42.183Z,55.14
2023-05-22T10:39:42.180Z,54.94
2023-05-22T10:40:42.184Z,55.04
2023-05-22T10:41:43.186Z,53.06
2023-05-22T10:42:42.154Z,55.38
2023-05-22T10:43:42.154Z,54.65
2023-05-22T10:44:42.166Z,56.73
2023-05-22T10:45:43.951Z,62.07
2023-05-22T10:46:42.131Z,54.62
2023-05-22T10:47:42.250Z,58.85
2023-05-22T10:48:42.211Z,57.93
2023-05-22T10:49:42.126Z,55.73
2023-05-22T10:50:42.274Z,54.45
2023-05-22T10:51:42.089Z,55.08
2023-05-22T10:52:42.092Z,61.15
2023-05-22T10:53:42.084Z,53.18
2023-05-22T10:54:42.112Z,56.65
2023-05-22T10:55:42.054Z,51.51
2023-05-22T10:56:42.072Z,51.82
2023-05-22T10:57:42.053Z,58.07
2023-05-22T10:58:42.039Z,55.84
2023-05-22T10:59:42.056Z,56.17
2023-05-22T11:00:42.207Z,60.11
2023-05-22T11:01:42.057Z,53.14
2023-05-22T11:02:42.102Z,54.22
2023-05-22T11:03:42.021Z,53.32
2023-05-22T11:04:42.107Z,55.85
2023-05-22T11:05:41.973Z,52.62
2023-05-22T11:06:42.098Z,53.29
2023-05-22T11:07:41.959Z,54.34
2023-05-22T11:08:41.976Z,52.47
2023-05-22T11:09:42.212Z,54.36
2023-05-22T11:10:41.991Z,55.96
2023-05-22T11:11:41.933Z,54.04
2023-05-22T11:12:41.977Z,55.57
2023-05-22T11:13:41.975Z,56.19
2023-05-22T11:47:40.693Z,49.84
2023-05-22T11:58:07.672Z,58.01
2023-05-22T11:59:07.665Z,55.47
2023-05-22T12:00:07.635Z,53.50
2023-05-22T12:01:07.636Z,54.88
2023-05-22T12:02:08.829Z,54.16
2023-05-22T12:03:08.779Z,54.22
2023-05-22T12:04:08.755Z,56.74
2023-05-22T12:05:08.712Z,57.79
2023-05-22T12:06:08.761Z,54.91
2023-05-22T12:07:08.722Z,57.15
2023-05-22T12:08:40.625Z,57.91
2023-05-22T12:09:08.712Z,55.63
2023-05-22T12:10:08.692Z,56.94
2023-05-22T12:11:08.673Z,54.59
2023-05-22T12:12:08.693Z,58.81
2023-05-22T12:13:08.665Z,54.09
2023-05-22T12:14:08.650Z,55.74
2023-05-22T12:15:08.653Z,56.62
2023-05-22T12:16:08.671Z,57.59
2023-05-22T12:17:08.674Z,54.88
2023-05-22T12:18:08.727Z,61.46
2023-05-22T12:19:08.705Z,56.83
2023-05-22T12:20:08.611Z,59.08
2023-05-22T12:21:08.676Z,57.01
2023-05-22T12:22:08.638Z,57.80
2023-05-22T12:23:08.576Z,54.64
2023-05-22T12:24:08.572Z,55.85
2023-05-22T12:25:08.562Z,55.17
2023-05-22T12:26:08.578Z,56.19
2023-05-22T12:27:08.569Z,56.46
2023-05-22T12:28:08.549Z,54.37
2023-05-22T12:29:08.543Z,54.97
2023-05-22T12:30:08.532Z,54.87
2023-05-22T12:31:08.606Z,55.46
2023-05-22T12:32:08.562Z,58.38
2023-05-22T12:33:08.600Z,54.89
2023-05-22T12:34:08.667Z,53.01
2023-05-22T12:35:08.650Z,55.80
2023-05-22T12:36:08.656Z,55.67
2023-05-22T12:37:08.607Z,55.61
2023-05-22T12:38:08.504Z,55.69
2023-05-22T12:39:08.581Z,58.14
2023-05-22T12:40:08.629Z,57.50
2023-05-22T12:41:08.496Z,58.36
2023-05-22T12:42:08.451Z,54.64
2023-05-22T12:43:08.445Z,56.59
2023-05-22T12:44:08.576Z,56.03
2023-05-22T12:45:08.492Z,56.83
2023-05-22T12:46:09.477Z,54.10
2023-05-22T12:47:08.442Z,55.81
2023-05-22T12:48:08.475Z,54.82
2023-05-22T12:49:09.256Z,55.16
2023-05-22T12:50:08.602Z,51.91
2023-05-22T12:51:08.377Z,54.07
2023-05-22T12:52:08.373Z,57.15
2023-05-22T12:53:08.381Z,52.50
2023-05-22T12:54:08.348Z,53.26
2023-05-22T12:55:08.560Z,55.97
2023-05-22T12:56:08.350Z,56.88
2023-05-22T12:57:08.338Z,54.29
2023-05-22T12:58:08.331Z,56.67
2023-05-22T12:59:08.558Z,58.15
2023-05-22T13:00:08.581Z,56.61
2023-05-22T13:01:08.334Z,53.25
2023-05-22T13:02:08.319Z,54.40
2023-05-22T13:03:08.350Z,55.26
2023-05-22T13:04:08.307Z,52.78
2023-05-22T13:05:08.340Z,58.46
2023-05-22T13:06:08.352Z,53.93
2023-05-22T13:07:08.256Z,55.12
2023-05-22T13:08:08.271Z,55.65
2023-05-22T13:09:08.269Z,50.80
2023-05-22T13:10:08.237Z,54.09
2023-05-22T13:11:08.224Z,55.70
2023-05-22T13:12:08.258Z,55.43
2023-05-22T13:13:08.233Z,53.83
2023-05-22T13:14:08.233Z,55.41
2023-05-22T13:15:08.223Z,55.19
2023-05-22T13:16:08.208Z,55.89
2023-05-22T13:17:08.238Z,53.33
2023-05-22T13:18:08.642Z,53.73
2023-05-22T13:19:08.193Z,54.29
2023-05-22T13:20:08.176Z,55.97
2023-05-22T13:21:08.162Z,54.91
2023-05-22T13:22:08.231Z,55.27
2023-05-22T13:23:08.172Z,53.61
2023-05-22T13:24:08.140Z,55.39
2023-05-22T13:25:08.151Z,55.51
2023-05-22T13:26:08.126Z,51.83
2023-05-22T13:27:08.154Z,54.28
2023-05-22T13:28:08.132Z,54.62
2023-05-22T13:29:08.111Z,53.25
2023-05-22T13:30:08.161Z,51.12
2023-05-22T13:31:08.102Z,56.58
2023-05-22T13:32:08.118Z,52.67
2023-05-22T13:33:08.124Z,55.69
2023-05-22T13:34:08.151Z,57.40
2023-05-22T13:35:08.060Z,53.01
2023-05-22T13:36:08.049Z,50.28
2023-05-22T13:37:08.078Z,51.84
2023-05-22T13:38:08.125Z,52.75
2023-05-22T13:39:08.040Z,55.26
2023-05-22T13:40:08.033Z,54.23
2023-05-22T13:41:08.047Z,55.94
2023-05-22T13:42:08.035Z,52.80
2023-05-22T13:43:08.008Z,52.14
2023-05-22T13:44:08.001Z,52.92
2023-05-22T13:45:07.996Z,56.14
2023-05-22T13:46:08.003Z,55.93
2023-05-22T13:47:08.006Z,53.54
2023-05-22T13:48:07.971Z,52.70
2023-05-22T13:49:07.967Z,52.39
2023-05-22T13:50:07.959Z,52.32
2023-05-22T13:51:07.995Z,51.37
2023-05-22T13:52:07.939Z,53.99
2023-05-22T13:53:07.936Z,51.15
2023-05-22T13:54:08.030Z,50.30
2023-05-22T13:55:07.948Z,52.25
2023-05-22T13:56:07.939Z,53.88
2023-05-22T13:57:07.898Z,53.73
2023-05-22T13:58:07.902Z,55.32
2023-05-22T13:59:09.317Z,51.96
2023-05-22T14:00:08.931Z,54.88
2023-05-22T14:01:07.928Z,55.56
2023-05-22T14:02:07.887Z,53.59
2023-05-22T14:03:07.915Z,53.68
2023-05-22T14:04:07.857Z,53.98
2023-05-22T14:05:07.885Z,51.49
2023-05-22T14:06:07.840Z,54.42
2023-05-22T14:07:07.819Z,57.49
2023-05-22T14:08:07.818Z,55.01
2023-05-22T14:09:07.878Z,52.87
2023-05-22T14:10:08.008Z,55.65
2023-05-22T14:11:07.834Z,55.32
2023-05-22T14:12:07.846Z,54.31
2023-05-22T14:13:07.856Z,55.07
2023-05-22T14:14:07.813Z,53.57
2023-05-22T14:15:07.769Z,55.77
2023-05-22T14:16:07.758Z,51.66
2023-05-22T14:17:07.999Z,55.56
2023-05-22T14:18:07.877Z,58.15
2023-05-22T14:19:07.866Z,53.83
2023-05-22T14:20:07.752Z,53.34
2023-05-22T14:21:07.719Z,54.01
2023-05-22T14:22:07.714Z,53.39
2023-05-22T14:23:07.748Z,53.56
2023-05-22T14:24:07.703Z,50.77
2023-05-22T14:25:07.689Z,56.19
2023-05-22T14:26:07.852Z,55.73
2023-05-22T14:27:07.697Z,54.17
2023-05-22T14:28:07.698Z,51.91
2023-05-22T14:29:07.661Z,54.90
2023-05-22T14:30:07.722Z,53.11
2023-05-22T14:31:07.737Z,49.89
2023-05-22T14:32:07.669Z,52.93
2023-05-22T14:33:07.734Z,53.62
2023-05-22T14:34:07.648Z,54.48
2023-05-22T14:35:07.647Z,54.12
2023-05-22T14:36:07.634Z,54.39
2023-05-22T14:37:07.644Z,54.56
2023-05-22T14:38:07.589Z,53.41
2023-05-22T14:39:07.583Z,53.06
2023-05-22T14:40:07.687Z,55.05
2023-05-22T14:41:07.574Z,53.42
2023-05-22T14:42:07.660Z,54.91
2023-05-22T14:43:07.578Z,48.96
2023-05-22T14:44:07.556Z,51.67
2023-05-22T14:45:07.569Z,55.48
2023-05-22T14:46:07.585Z,53.30
2023-05-22T14:47:07.557Z,57.37
2023-05-22T14:48:09.535Z,54.53
2023-05-22T14:49:07.552Z,54.95
2023-05-22T14:50:19.152Z,54.27
2023-05-22T14:51:09.535Z,55.83
2023-05-22T14:52:07.496Z,55.66
2023-05-22T14:53:07.496Z,54.24
2023-05-22T14:54:07.502Z,51.61
2023-05-22T14:55:08.469Z,53.66
2023-05-22T14:56:07.499Z,55.88
2023-05-22T14:57:07.467Z,56.63
2023-05-22T14:58:07.545Z,55.69
2023-05-22T14:59:07.464Z,54.16
2023-05-22T15:00:07.508Z,55.63
2023-05-22T15:01:07.473Z,53.99
2023-05-22T15:02:07.490Z,55.35
2023-05-22T15:03:07.481Z,54.06
2023-05-22T15:04:07.424Z,57.66